sensor_id;sensor_type;location;lat;lon;timestamp;pressure;altitude;pressure_sealevel;temperature;humidity
20394;BME280;10356;50.544;9.642;2023-05-11T00:02:06;97985.81;;;12.58;100.00
20394;BME280;10356;50.544;9.642;2023-05-11T00:04:33;97977.44;;;12.55;100.00
20394;BME280;10356;50.544;9.642;2023-05-11T00:06:59;97979.50;;;12.51;100.00
20394;BME280;10356;50.544;9.642;2023-05-11T00:09:27;97977.72;;;12.52;100.00
20394;BME280;10356;50.544;9.642;2023-05-11T00:11:53;97980.75;;;12.47;100.00
20394;BME280;10356;50.544;9.642;2023-05-11T00:14:20;97973.16;;;12.44;100.00
20394;BME280;10356;50.544;9.642;2023-05-11T00:16:47;97981.13;;;12.43;100.00
20394;BME280;10356;50.544;9.642;2023-05-11T00:19:13;97973.59;;;12.40;100.00
20394;BME280;10356;50.544;9.642;2023-05-11T00:21:40;97975.63;;;12.36;100.00
20394;BME280;10356;50.544;9.642;2023-05-11T00:24:07;97977.56;;;12.34;100.00
20394;BME280;10356;50.544;9.642;2023-05-11T00:26:35;97978.78;;;12.30;100.00
20394;BME280;10356;50.544;9.642;2023-05-11T00:29:01;97975.47;;;12.28;100.00
20394;BME280;10356;50.544;9.642;2023-05-11T00:31:28;97971.09;;;12.29;100.00
20394;BME280;10356;50.544;9.642;2023-05-11T00:33:54;97978.63;;;12.22;100.00
20394;BME280;10356;50.544;9.642;2023-05-11T00:36:21;97975.91;;;12.24;100.00
20394;BME280;10356;50.544;9.642;2023-05-11T00:38:47;97977.84;;;12.22;100.00
20394;BME280;10356;50.544;9.642;2023-05-11T00:41:14;97975.88;;;12.14;100.00
20394;BME280;10356;50.544;9.642;2023-05-11T00:43:42;97970.94;;;12.11;100.00
20394;BME280;10356;50.544;9.642;2023-05-11T00:46:08;97971.19;;;12.08;100.00
20394;BME280;10356;50.544;9.642;2023-05-11T00:48:35;97967.09;;;12.06;100.00
20394;BME280;10356;50.544;9.642;2023-05-11T00:51:02;97970.09;;;12.01;100.00
20394;BME280;10356;50.544;9.642;2023-05-11T00:53:29;97971.19;;;11.99;100.00
20394;BME280;10356;50.544;9.642;2023-05-11T00:55:55;97972.72;;;12.01;100.00
20394;BME280;10356;50.544;9.642;2023-05-11T00:58:23;97974.78;;;11.98;100.00
20394;BME280;10356;50.544;9.642;2023-05-11T01:00:51;97971.47;;;11.96;100.00
20394;BME280;10356;50.544;9.642;2023-05-11T01:03:17;97973.78;;;11.99;100.00
20394;BME280;10356;50.544;9.642;2023-05-11T01:05:48;97967.63;;;12.00;100.00
20394;BME280;10356;50.544;9.642;2023-05-11T01:08:21;97976.69;;;11.96;100.00
20394;BME280;10356;50.544;9.642;2023-05-11T01:10:55;97973.78;;;11.89;100.00
20394;BME280;10356;50.544;9.642;2023-05-11T01:13:27;97972.13;;;11.88;100.00
20394;BME280;10356;50.544;9.642;2023-05-11T01:15:57;97967.88;;;11.87;100.00
20394;BME280;10356;50.544;9.642;2023-05-11T01:18:25;97972.41;;;11.85;100.00
20394;BME280;10356;50.544;9.642;2023-05-11T01:20:56;97967.19;;;11.85;100.00
20394;BME280;10356;50.544;9.642;2023-05-11T01:23:48;97967.19;;;11.85;100.00
20394;BME280;10356;50.544;9.642;2023-05-11T01:26:33;97964.56;;;11.85;100.00
20394;BME280;10356;50.544;9.642;2023-05-11T01:29:09;97963.72;;;11.85;100.00
20394;BME280;10356;50.544;9.642;2023-05-11T01:31:41;97968.13;;;11.84;100.00
20394;BME280;10356;50.544;9.642;2023-05-11T01:34:13;97971.00;;;11.81;100.00
20394;BME280;10356;50.544;9.642;2023-05-11T01:36:43;97966.03;;;11.78;100.00
20394;BME280;10356;50.544;9.642;2023-05-11T01:39:15;97961.50;;;11.80;100.00
20394;BME280;10356;50.544;9.642;2023-05-11T01:41:47;97965.09;;;11.79;100.00
20394;BME280;10356;50.544;9.642;2023-05-11T01:44:17;97965.09;;;11.79;100.00
20394;BME280;10356;50.544;9.642;2023-05-11T01:46:48;97967.00;;;11.77;100.00
20394;BME280;10356;50.544;9.642;2023-05-11T01:49:16;97965.34;;;11.76;100.00
20394;BME280;10356;50.544;9.642;2023-05-11T01:51:45;97973.59;;;11.71;100.00
20394;BME280;10356;50.544;9.642;2023-05-11T01:54:14;97974.00;;;11.67;100.00
20394;BME280;10356;50.544;9.642;2023-05-11T01:56:45;97977.28;;;11.69;100.00
20394;BME280;10356;50.544;9.642;2023-05-11T01:59:13;97972.56;;;11.63;100.00
20394;BME280;10356;50.544;9.642;2023-05-11T02:01:40;97971.59;;;11.64;100.00
20394;BME280;10356;50.544;9.642;2023-05-11T02:04:08;97979.41;;;11.64;100.00
20394;BME280;10356;50.544;9.642;2023-05-11T02:06:37;97976.13;;;11.62;100.00
20394;BME280;10356;50.544;9.642;2023-05-11T02:09:06;97981.47;;;11.60;100.00
20394;BME280;10356;50.544;9.642;2023-05-11T02:11:35;97978.16;;;11.58;100.00
20394;BME280;10356;50.544;9.642;2023-05-11T02:14:04;97981.03;;;11.55;100.00
20394;BME280;10356;50.544;9.642;2023-05-11T02:16:32;97980.91;;;11.57;100.00
20394;BME280;10356;50.544;9.642;2023-05-11T02:19:00;97983.53;;;11.57;100.00
20394;BME280;10356;50.544;9.642;2023-05-11T02:21:30;97982.84;;;11.55;100.00
20394;BME280;10356;50.544;9.642;2023-05-11T02:23:59;97987.09;;;11.56;100.00
20394;BME280;10356;50.544;9.642;2023-05-11T02:26:26;97982.84;;;11.55;100.00
20394;BME280;10356;50.544;9.642;2023-05-11T02:28:53;97978.41;;;11.55;100.00
20394;BME280;10356;50.544;9.642;2023-05-11T02:31:24;97986.16;;;11.57;100.00
20394;BME280;10356;50.544;9.642;2023-05-11T02:33:54;97987.78;;;11.58;100.00
20394;BME280;10356;50.544;9.642;2023-05-11T02:36:22;97980.91;;;11.57;100.00
20394;BME280;10356;50.544;9.642;2023-05-11T02:38:56;97986.16;;;11.57;100.00
20394;BME280;10356;50.544;9.642;2023-05-11T02:41:25;97984.47;;;11.56;100.00
20394;BME280;10356;50.544;9.642;2023-05-11T02:43:54;97985.44;;;11.55;100.00
20394;BME280;10356;50.544;9.642;2023-05-11T02:46:25;97983.78;;;11.54;100.00
20394;BME280;10356;50.544;9.642;2023-05-11T02:48:55;97989.97;;;11.53;100.00
20394;BME280;10356;50.544;9.642;2023-05-11T02:51:28;97992.56;;;11.53;100.00
20394;BME280;10356;50.544;9.642;2023-05-11T02:53:58;97988.31;;;11.52;100.00
20394;BME280;10356;50.544;9.642;2023-05-11T02:56:25;97987.59;;;11.50;100.00
20394;BME280;10356;50.544;9.642;2023-05-11T02:58:52;97980.47;;;11.52;100.00
20394;BME280;10356;50.544;9.642;2023-05-11T03:01:20;97985.84;;;11.50;100.00
20394;BME280;10356;50.544;9.642;2023-05-11T03:03:47;97986.91;;;11.48;100.00
20394;BME280;10356;50.544;9.642;2023-05-11T03:06:13;97982.53;;;11.48;100.00
20394;BME280;10356;50.544;9.642;2023-05-11T03:08:40;97986.91;;;11.48;100.00
20394;BME280;10356;50.544;9.642;2023-05-11T03:11:09;97991.19;;;11.49;100.00
20394;BME280;10356;50.544;9.642;2023-05-11T03:13:37;97983.38;;;11.49;100.00
20394;BME280;10356;50.544;9.642;2023-05-11T03:16:05;97986.91;;;11.48;100.00
20394;BME280;10356;50.544;9.642;2023-05-11T03:18:32;97988.81;;;11.46;100.00
20394;BME280;10356;50.544;9.642;2023-05-11T03:20:59;97985.78;;;11.41;100.00
20394;BME280;10356;50.544;9.642;2023-05-11T03:23:27;97982.50;;;11.39;100.00
20394;BME280;10356;50.544;9.642;2023-05-11T03:25:55;97987.72;;;11.39;100.00
20394;BME280;10356;50.544;9.642;2023-05-11T03:28:24;97985.09;;;11.39;100.00
20394;BME280;10356;50.544;9.642;2023-05-11T03:30:52;97991.94;;;11.40;100.00
20394;BME280;10356;50.544;9.642;2023-05-11T03:33:19;97985.34;;;11.36;100.00
20394;BME280;10356;50.544;9.642;2023-05-11T03:35:47;97989.34;;;11.40;100.00
20394;BME280;10356;50.544;9.642;2023-05-11T03:38:15;97988.41;;;11.41;100.00
20394;BME280;10356;50.544;9.642;2023-05-11T03:40:42;97990.75;;;11.44;100.00
20394;BME280;10356;50.544;9.642;2023-05-11T03:43:10;97981.97;;;11.45;100.00
20394;BME280;10356;50.544;9.642;2023-05-11T03:45:40;97987.19;;;11.45;100.00
20394;BME280;10356;50.544;9.642;2023-05-11T03:48:09;97987.75;;;11.48;100.00
20394;BME280;10356;50.544;9.642;2023-05-11T03:50:37;97986.66;;;11.51;100.00
20394;BME280;10356;50.544;9.642;2023-05-11T03:53:04;97979.53;;;11.53;100.00
20394;BME280;10356;50.544;9.642;2023-05-11T03:55:31;97983.09;;;11.52;100.00
20394;BME280;10356;50.544;9.642;2023-05-11T03:57:58;97982.16;;;11.53;100.00
20394;BME280;10356;50.544;9.642;2023-05-11T04:00:25;97975.00;;;11.55;100.00
20394;BME280;10356;50.544;9.642;2023-05-11T04:02:53;97979.94;;;11.58;100.00
20394;BME280;10356;50.544;9.642;2023-05-11T04:05:19;97979.53;;;11.53;100.00
20394;BME280;10356;50.544;9.642;2023-05-11T04:07:46;97973.47;;;11.52;100.00
20394;BME280;10356;50.544;9.642;2023-05-11T04:10:12;97977.72;;;11.53;100.00
20394;BME280;10356;50.544;9.642;2023-05-11T04:12:39;97972.66;;;11.52;100.00
20394;BME280;10356;50.544;9.642;2023-05-11T04:15:06;97971.44;;;11.56;100.00
20394;BME280;10356;50.544;9.642;2023-05-11T04:17:33;97978.16;;;11.58;100.00
20394;BME280;10356;50.544;9.642;2023-05-11T04:20:01;97974.63;;;11.59;100.00
20394;BME280;10356;50.544;9.642;2023-05-11T04:22:27;97974.94;;;11.66;100.00
20394;BME280;10356;50.544;9.642;2023-05-11T04:24:54;97982.38;;;11.70;100.00
20394;BME280;10356;50.544;9.642;2023-05-11T04:27:20;97981.53;;;11.70;100.00
20394;BME280;10356;50.544;9.642;2023-05-11T04:29:47;97984.72;;;11.73;100.00
20394;BME280;10356;50.544;9.642;2023-05-11T04:32:13;97982.91;;;11.74;100.00
20394;BME280;10356;50.544;9.642;2023-05-11T04:34:40;97984.75;;;11.83;100.00
20394;BME280;10356;50.544;9.642;2023-05-11T04:37:09;97989.28;;;11.81;100.00
20394;BME280;10356;50.544;9.642;2023-05-11T04:39:35;97990.66;;;11.85;100.00
20394;BME280;10356;50.544;9.642;2023-05-11T04:42:02;97985.16;;;11.88;100.00
20394;BME280;10356;50.544;9.642;2023-05-11T04:44:28;97992.06;;;11.89;100.00
20394;BME280;10356;50.544;9.642;2023-05-11T04:46:55;97987.53;;;11.91;100.00
20394;BME280;10356;50.544;9.642;2023-05-11T04:49:22;97981.06;;;11.95;100.00
20394;BME280;10356;50.544;9.642;2023-05-11T04:51:48;97981.50;;;12.00;100.00
20394;BME280;10356;50.544;9.642;2023-05-11T04:54:16;97989.31;;;12.00;100.00
20394;BME280;10356;50.544;9.642;2023-05-11T04:56:43;97981.38;;;12.11;100.00
20394;BME280;10356;50.544;9.642;2023-05-11T04:59:09;97982.22;;;12.21;100.00
20394;BME280;10356;50.544;9.642;2023-05-11T05:01:36;97981.00;;;12.25;100.00
20394;BME280;10356;50.544;9.642;2023-05-11T05:04:02;97983.06;;;12.31;100.00
20394;BME280;10356;50.544;9.642;2023-05-11T05:06:29;97982.53;;;12.37;100.00
20394;BME280;10356;50.544;9.642;2023-05-11T05:08:56;97982.22;;;12.40;100.00
20394;BME280;10356;50.544;9.642;2023-05-11T05:11:24;97975.63;;;12.36;100.00
20394;BME280;10356;50.544;9.642;2023-05-11T05:13:50;97982.66;;;12.45;100.00
20394;BME280;10356;50.544;9.642;2023-05-11T05:16:17;97989.94;;;12.51;100.00
20394;BME280;10356;50.544;9.642;2023-05-11T05:18:44;97989.66;;;12.54;100.00
20394;BME280;10356;50.544;9.642;2023-05-11T05:21:10;97990.66;;;12.53;100.00
20394;BME280;10356;50.544;9.642;2023-05-11T05:23:36;97986.38;;;12.62;100.00
20394;BME280;10356;50.544;9.642;2023-05-11T05:26:03;97989.94;;;12.61;100.00
20394;BME280;10356;50.544;9.642;2023-05-11T05:28:31;97994.09;;;12.63;100.00
20394;BME280;10356;50.544;9.642;2023-05-11T05:31:01;97997.09;;;12.68;100.00
20394;BME280;10356;50.544;9.642;2023-05-11T05:33:27;98004.28;;;12.76;100.00
20394;BME280;10356;50.544;9.642;2023-05-11T05:35:54;98007.44;;;12.80;100.00
20394;BME280;10356;50.544;9.642;2023-05-11T05:38:20;98002.34;;;12.78;100.00
20394;BME280;10356;50.544;9.642;2023-05-11T05:40:47;98009.91;;;12.81;100.00
20394;BME280;10356;50.544;9.642;2023-05-11T05:43:13;98012.50;;;12.81;100.00
20394;BME280;10356;50.544;9.642;2023-05-11T05:45:41;98016.63;;;12.84;100.00
20394;BME280;10356;50.544;9.642;2023-05-11T05:48:08;98016.63;;;12.84;100.00
20394;BME280;10356;50.544;9.642;2023-05-11T05:50:34;98018.28;;;12.75;100.00
20394;BME280;10356;50.544;9.642;2023-05-11T05:53:01;98016.09;;;12.61;100.00
20394;BME280;10356;50.544;9.642;2023-05-11T05:55:27;98016.78;;;12.53;100.00
20394;BME280;10356;50.544;9.642;2023-05-11T05:57:54;98017.88;;;12.60;100.00
20394;BME280;10356;50.544;9.642;2023-05-11T06:00:20;98021.84;;;12.64;100.00
20394;BME280;10356;50.544;9.642;2023-05-11T06:02:48;98023.38;;;12.67;100.00
20394;BME280;10356;50.544;9.642;2023-05-11T06:05:14;98022.53;;;12.57;100.00
20394;BME280;10356;50.544;9.642;2023-05-11T06:07:41;98022.97;;;12.62;100.00
20394;BME280;10356;50.544;9.642;2023-05-11T06:10:07;98023.53;;;12.65;100.00
20394;BME280;10356;50.544;9.642;2023-05-11T06:12:34;98033.84;;;12.77;100.00
20394;BME280;10356;50.544;9.642;2023-05-11T06:15:00;98029.97;;;12.81;100.00
20394;BME280;10356;50.544;9.642;2023-05-11T06:17:27;98037.84;;;12.90;100.00
20394;BME280;10356;50.544;9.642;2023-05-11T06:19:55;98030.69;;;12.92;100.00
20394;BME280;10356;50.544;9.642;2023-05-11T06:22:21;98037.84;;;12.90;100.00
20394;BME280;10356;50.544;9.642;2023-05-11T06:24:48;98033.72;;;12.88;100.00
20394;BME280;10356;50.544;9.642;2023-05-11T06:27:15;98029.44;;;12.87;100.00
20394;BME280;10356;50.544;9.642;2023-05-11T06:29:41;98026.00;;;12.86;100.00
20394;BME280;10356;50.544;9.642;2023-05-11T06:32:07;98033.44;;;12.91;100.00
20394;BME280;10356;50.544;9.642;2023-05-11T06:34:34;98029.97;;;13.00;100.00
20394;BME280;10356;50.544;9.642;2023-05-11T06:37:02;98029.72;;;13.03;100.00
20394;BME280;10356;50.544;9.642;2023-05-11T06:39:28;98019.00;;;13.06;100.00
20394;BME280;10356;50.544;9.642;2023-05-11T06:41:55;98026.41;;;13.20;100.00
20394;BME280;10356;50.544;9.642;2023-05-11T06:44:21;98021.28;;;13.28;100.00
20394;BME280;10356;50.544;9.642;2023-05-11T06:46:48;98019.66;;;13.27;100.00
20394;BME280;10356;50.544;9.642;2023-05-11T06:49:14;98021.97;;;13.30;100.00
20394;BME280;10356;50.544;9.642;2023-05-11T06:51:41;98021.84;;;13.41;100.00
20394;BME280;10356;50.544;9.642;2023-05-11T06:54:08;98018.22;;;13.42;100.00
20394;BME280;10356;50.544;9.642;2023-05-11T06:56:35;98024.84;;;13.46;100.00
20394;BME280;10356;50.544;9.642;2023-05-11T06:59:02;98025.25;;;13.51;100.00
20394;BME280;10356;50.544;9.642;2023-05-11T07:01:28;98020.34;;;13.66;100.00
20394;BME280;10356;50.544;9.642;2023-05-11T07:03:55;98023.13;;;13.64;100.00
20394;BME280;10356;50.544;9.642;2023-05-11T07:06:22;98021.72;;;13.70;100.00
20394;BME280;10356;50.544;9.642;2023-05-11T07:08:48;98026.16;;;13.69;99.97
20394;BME280;10356;50.544;9.642;2023-05-11T07:11:16;98027.06;;;13.78;99.05
20394;BME280;10356;50.544;9.642;2023-05-11T07:13:43;98019.88;;;13.89;99.42
20394;BME280;10356;50.544;9.642;2023-05-11T07:16:09;98031.81;;;14.01;98.76
20394;BME280;10356;50.544;9.642;2023-05-11T07:18:36;98019.47;;;14.11;97.70
20394;BME280;10356;50.544;9.642;2023-05-11T07:21:02;98022.56;;;14.24;97.22
20394;BME280;10356;50.544;9.642;2023-05-11T07:23:29;98025.28;;;14.32;96.82
20394;BME280;10356;50.544;9.642;2023-05-11T07:25:55;98028.59;;;14.35;96.40
20394;BME280;10356;50.544;9.642;2023-05-11T07:28:23;98031.69;;;14.20;98.21
20394;BME280;10356;50.544;9.642;2023-05-11T07:30:50;98030.19;;;14.45;98.36
20394;BME280;10356;50.544;9.642;2023-05-11T07:33:16;98032.47;;;14.30;96.45
20394;BME280;10356;50.544;9.642;2023-05-11T07:35:43;98029.75;;;14.32;95.96
20394;BME280;10356;50.544;9.642;2023-05-11T07:38:09;98036.03;;;14.39;97.18
20394;BME280;10356;50.544;9.642;2023-05-11T07:40:37;98034.16;;;14.49;94.19
20394;BME280;10356;50.544;9.642;2023-05-11T07:43:04;98028.75;;;14.51;95.30
20394;BME280;10356;50.544;9.642;2023-05-11T07:45:32;98029.44;;;14.35;96.63
20394;BME280;10356;50.544;9.642;2023-05-11T07:47:58;98039.34;;;14.59;94.17
20394;BME280;10356;50.544;9.642;2023-05-11T07:50:25;98032.44;;;14.75;92.42
20394;BME280;10356;50.544;9.642;2023-05-11T07:52:51;98039.56;;;14.65;90.65
20394;BME280;10356;50.544;9.642;2023-05-11T07:55:18;98040.41;;;14.66;91.46
20394;BME280;10356;50.544;9.642;2023-05-11T07:57:49;98036.00;;;14.66;91.30
20394;BME280;10356;50.544;9.642;2023-05-11T08:00:16;98039.13;;;14.70;91.95
20394;BME280;10356;50.544;9.642;2023-05-11T08:02:43;98030.88;;;14.65;92.93
20394;BME280;10356;50.544;9.642;2023-05-11T08:05:10;98036.19;;;14.55;93.46
20394;BME280;10356;50.544;9.642;2023-05-11T08:07:37;98028.56;;;14.62;95.43
20394;BME280;10356;50.544;9.642;2023-05-11T08:10:04;98032.69;;;14.64;92.34
20394;BME280;10356;50.544;9.642;2023-05-11T08:12:31;98036.25;;;14.81;93.27
20394;BME280;10356;50.544;9.642;2023-05-11T08:14:57;98033.34;;;15.01;94.97
20394;BME280;10356;50.544;9.642;2023-05-11T08:17:24;98031.97;;;15.15;93.74
20394;BME280;10356;50.544;9.642;2023-05-11T08:19:52;98037.94;;;15.25;91.41
20394;BME280;10356;50.544;9.642;2023-05-11T08:22:18;98040.50;;;15.35;90.06
20394;BME280;10356;50.544;9.642;2023-05-11T08:24:45;98033.81;;;15.40;90.27
20394;BME280;10356;50.544;9.642;2023-05-11T08:27:11;98035.38;;;15.51;92.80
20394;BME280;10356;50.544;9.642;2023-05-11T08:29:39;98039.69;;;15.60;90.23
20394;BME280;10356;50.544;9.642;2023-05-11T08:32:05;98041.19;;;15.62;90.73
20394;BME280;10356;50.544;9.642;2023-05-11T08:34:32;98038.56;;;15.62;90.88
20394;BME280;10356;50.544;9.642;2023-05-11T08:37:00;98037.03;;;15.77;90.64
20394;BME280;10356;50.544;9.642;2023-05-11T08:39:27;98036.22;;;15.85;88.52
20394;BME280;10356;50.544;9.642;2023-05-11T08:41:55;98038.34;;;15.81;86.58
20394;BME280;10356;50.544;9.642;2023-05-11T08:44:22;98042.59;;;15.31;88.37
20394;BME280;10356;50.544;9.642;2023-05-11T08:46:52;98040.63;;;15.51;89.02
20394;BME280;10356;50.544;9.642;2023-05-11T08:49:18;98033.41;;;15.78;86.47
20394;BME280;10356;50.544;9.642;2023-05-11T08:51:46;98036.53;;;15.82;87.23
20394;BME280;10356;50.544;9.642;2023-05-11T08:54:14;98038.41;;;15.89;87.15
20394;BME280;10356;50.544;9.642;2023-05-11T08:56:40;98032.59;;;16.12;87.44
20394;BME280;10356;50.544;9.642;2023-05-11T08:59:09;98036.53;;;16.16;87.54
20394;BME280;10356;50.544;9.642;2023-05-11T09:01:39;98040.19;;;16.31;87.76
20394;BME280;10356;50.544;9.642;2023-05-11T09:04:07;98043.09;;;16.12;86.66
20394;BME280;10356;50.544;9.642;2023-05-11T09:06:34;98046.06;;;16.17;87.41
20394;BME280;10356;50.544;9.642;2023-05-11T09:09:01;98037.28;;;16.42;90.39
20394;BME280;10356;50.544;9.642;2023-05-11T09:11:30;98036.03;;;16.54;88.47
20394;BME280;10356;50.544;9.642;2023-05-11T09:13:57;98034.09;;;16.72;89.46
20394;BME280;10356;50.544;9.642;2023-05-11T09:16:24;98029.81;;;16.79;87.30
20394;BME280;10356;50.544;9.642;2023-05-11T09:18:52;98033.09;;;16.73;82.93
20394;BME280;10356;50.544;9.642;2023-05-11T09:21:19;98029.97;;;16.77;83.29
20394;BME280;10356;50.544;9.642;2023-05-11T09:23:48;98027.66;;;16.66;83.83
20394;BME280;10356;50.544;9.642;2023-05-11T09:26:15;98031.28;;;16.65;84.33
20394;BME280;10356;50.544;9.642;2023-05-11T09:28:48;98033.75;;;16.75;85.65
20394;BME280;10356;50.544;9.642;2023-05-11T09:31:35;98036.06;;;16.86;83.22
20394;BME280;10356;50.544;9.642;2023-05-11T09:34:10;98029.66;;;16.81;82.52
20394;BME280;10356;50.544;9.642;2023-05-11T09:36:37;98027.84;;;16.81;80.62
20394;BME280;10356;50.544;9.642;2023-05-11T09:39:04;98029.50;;;17.14;82.46
20394;BME280;10356;50.544;9.642;2023-05-11T09:41:30;98032.78;;;17.24;84.39
20394;BME280;10356;50.544;9.642;2023-05-11T09:44:05;98028.81;;;17.44;80.98
20394;BME280;10356;50.544;9.642;2023-05-11T09:46:33;98022.91;;;17.50;81.02
20394;BME280;10356;50.544;9.642;2023-05-11T09:48:59;98028.47;;;17.39;82.19
20394;BME280;10356;50.544;9.642;2023-05-11T09:51:30;98031.09;;;17.63;82.34
20394;BME280;10356;50.544;9.642;2023-05-11T09:53:59;98019.38;;;17.74;83.34
20394;BME280;10356;50.544;9.642;2023-05-11T09:56:43;98027.44;;;17.81;78.03
20394;BME280;10356;50.544;9.642;2023-05-11T09:59:14;98022.84;;;17.75;78.30
20394;BME280;10356;50.544;9.642;2023-05-11T10:01:41;98023.88;;;17.25;78.04
20394;BME280;10356;50.544;9.642;2023-05-11T10:04:08;98020.59;;;17.39;80.63
20394;BME280;10356;50.544;9.642;2023-05-11T10:06:46;98019.94;;;17.53;77.43
20394;BME280;10356;50.544;9.642;2023-05-11T10:09:15;98019.38;;;17.82;77.60
20394;BME280;10356;50.544;9.642;2023-05-11T10:11:43;98024.63;;;17.90;76.04
20394;BME280;10356;50.544;9.642;2023-05-11T10:14:13;98023.56;;;17.52;74.70
20394;BME280;10356;50.544;9.642;2023-05-11T10:16:41;98021.25;;;17.49;73.47
20394;BME280;10356;50.544;9.642;2023-05-11T10:19:09;98010.56;;;17.59;75.54
20394;BME280;10356;50.544;9.642;2023-05-11T10:21:36;98013.00;;;17.69;76.85
20394;BME280;10356;50.544;9.642;2023-05-11T10:24:04;98011.66;;;17.73;79.87
20394;BME280;10356;50.544;9.642;2023-05-11T10:26:31;98016.97;;;17.65;77.94
20394;BME280;10356;50.544;9.642;2023-05-11T10:28:59;98007.34;;;17.80;79.70
20394;BME280;10356;50.544;9.642;2023-05-11T10:31:28;98003.09;;;17.71;78.46
20394;BME280;10356;50.544;9.642;2023-05-11T10:33:56;98007.03;;;17.75;77.58
20394;BME280;10356;50.544;9.642;2023-05-11T10:36:23;98003.34;;;17.92;76.70
20394;BME280;10356;50.544;9.642;2023-05-11T10:38:50;98000.16;;;18.04;78.03
20394;BME280;10356;50.544;9.642;2023-05-11T10:41:35;97998.47;;;18.19;75.62
20394;BME280;10356;50.544;9.642;2023-05-11T10:47:20;98004.78;;;18.41;76.11
20394;BME280;10356;50.544;9.642;2023-05-11T10:50:10;98000.38;;;18.33;75.12
20394;BME280;10356;50.544;9.642;2023-05-11T10:52:56;98007.41;;;18.41;75.23
20394;BME280;10356;50.544;9.642;2023-05-11T10:55:33;97999.25;;;18.28;75.83
20394;BME280;10356;50.544;9.642;2023-05-11T10:58:06;97994.66;;;18.22;75.55
20394;BME280;10356;50.544;9.642;2023-05-11T11:03:57;98004.25;;;18.15;74.88
20394;BME280;10356;50.544;9.642;2023-05-11T11:06:26;98001.88;;;18.28;75.62
20394;BME280;10356;50.544;9.642;2023-05-11T11:08:54;97995.66;;;18.21;76.85
20394;BME280;10356;50.544;9.642;2023-05-11T11:11:30;97990.78;;;18.10;76.09
20394;BME280;10356;50.544;9.642;2023-05-11T11:13:57;97995.41;;;17.61;76.47
20394;BME280;10356;50.544;9.642;2023-05-11T11:16:26;97996.88;;;17.39;78.75
20394;BME280;10356;50.544;9.642;2023-05-11T11:21:54;97995.28;;;17.22;81.29
20394;BME280;10356;50.544;9.642;2023-05-11T11:24:43;97999.22;;;17.10;79.04
20394;BME280;10356;50.544;9.642;2023-05-11T11:27:11;98003.19;;;16.90;81.57
20394;BME280;10356;50.544;9.642;2023-05-11T11:29:39;98003.50;;;16.95;81.59
20394;BME280;10356;50.544;9.642;2023-05-11T11:32:24;98002.16;;;16.75;81.94
20394;BME280;10356;50.544;9.642;2023-05-11T11:34:51;97998.56;;;16.76;81.80
20394;BME280;10356;50.544;9.642;2023-05-11T11:37:19;98002.34;;;16.73;84.15
20394;BME280;10356;50.544;9.642;2023-05-11T11:39:53;97997.91;;;16.74;84.17
20394;BME280;10356;50.544;9.642;2023-05-11T11:42:34;97996.44;;;16.79;84.55
20394;BME280;10356;50.544;9.642;2023-05-11T11:45:33;97992.47;;;16.92;83.87
20394;BME280;10356;50.544;9.642;2023-05-11T11:48:14;98000.06;;;16.78;84.18
20394;BME280;10356;50.544;9.642;2023-05-11T11:50:42;98000.22;;;16.85;84.86
20394;BME280;10356;50.544;9.642;2023-05-11T11:53:12;98002.34;;;16.90;86.53
20394;BME280;10356;50.544;9.642;2023-05-11T11:55:49;98004.81;;;16.83;84.41
20394;BME280;10356;50.544;9.642;2023-05-11T12:01:21;98002.69;;;16.78;82.96
20394;BME280;10356;50.544;9.642;2023-05-11T12:03:56;98003.66;;;16.77;82.74
20394;BME280;10356;50.544;9.642;2023-05-11T12:06:26;98004.16;;;16.73;82.94
20394;BME280;10356;50.544;9.642;2023-05-11T12:09:00;98007.44;;;16.75;83.12
20394;BME280;10356;50.544;9.642;2023-05-11T12:11:28;98012.69;;;16.83;84.17
20394;BME280;10356;50.544;9.642;2023-05-11T12:13:55;98016.34;;;16.74;84.99
20394;BME280;10356;50.544;9.642;2023-05-11T12:16:22;98007.44;;;16.75;86.23
20394;BME280;10356;50.544;9.642;2023-05-11T12:18:51;98000.88;;;16.95;85.63
20394;BME280;10356;50.544;9.642;2023-05-11T12:21:18;98007.97;;;16.95;84.89
20394;BME280;10356;50.544;9.642;2023-05-11T12:23:50;98002.53;;;16.96;83.45
20394;BME280;10356;50.544;9.642;2023-05-11T12:26:19;98003.19;;;17.14;84.69
20394;BME280;10356;50.544;9.642;2023-05-11T12:28:46;98002.81;;;17.17;83.85
20394;BME280;10356;50.544;9.642;2023-05-11T12:31:14;98002.69;;;17.27;85.69
20394;BME280;10356;50.544;9.642;2023-05-11T12:33:44;98001.19;;;17.24;82.29
20394;BME280;10356;50.544;9.642;2023-05-11T12:36:13;98000.84;;;17.19;84.07
20394;BME280;10356;50.544;9.642;2023-05-11T12:38:42;98001.16;;;17.40;84.79
20394;BME280;10356;50.544;9.642;2023-05-11T12:41:08;97998.19;;;17.35;82.82
20394;BME280;10356;50.544;9.642;2023-05-11T12:43:36;97995.72;;;17.42;81.51
20394;BME280;10356;50.544;9.642;2023-05-11T12:46:03;97998.53;;;17.40;86.61
20394;BME280;10356;50.544;9.642;2023-05-11T12:48:30;97993.75;;;17.44;85.29
20394;BME280;10356;50.544;9.642;2023-05-11T12:50:56;97998.84;;;17.37;83.46
20394;BME280;10356;50.544;9.642;2023-05-11T12:53:23;97997.72;;;17.24;84.81
20394;BME280;10356;50.544;9.642;2023-05-11T12:55:56;97990.00;;;17.22;85.01
20394;BME280;10356;50.544;9.642;2023-05-11T12:58:23;97991.97;;;17.20;83.81
20394;BME280;10356;50.544;9.642;2023-05-11T13:00:52;97991.63;;;17.23;83.38
20394;BME280;10356;50.544;9.642;2023-05-11T13:03:20;97989.34;;;17.20;85.40
20394;BME280;10356;50.544;9.642;2023-05-11T13:05:47;97986.22;;;17.17;83.83
20394;BME280;10356;50.544;9.642;2023-05-11T13:08:16;97992.66;;;17.14;84.38
20394;BME280;10356;50.544;9.642;2023-05-11T13:10:43;97988.22;;;16.99;84.65
20394;BME280;10356;50.544;9.642;2023-05-11T13:13:10;97984.28;;;16.87;84.63
20394;BME280;10356;50.544;9.642;2023-05-11T13:15:49;97983.09;;;16.81;85.10